Time;durP1;ratioP1;P1;durP2;ratioP2;P2;SDS_P1;SDS_P2;PMS_P1;PMS_P2;Temp;Humidity;BMP_temperature;BMP_pressure;BME280_temperature;BME280_humidity;BME280_pressure;Samples;Min_cycle;Max_cycle;Signal;HPM_P1;HPM_P2
2023/03/29 00:00:10;;;;;;;7.15;4.43;;;;;;;2.94;49.34;95696.19;5002368;28;20474;-73
2023/03/29 00:02:35;;;;;;;6.93;4.85;;;;;;;3.00;50.06;95694.84;5052889;28;20452;-74
2023/03/29 00:05:02;;;;;;;11.27;7.70;;;;;;;3.23;50.14;95686.81;5052956;28;20071;-74
2023/03/29 00:07:29;;;;;;;5.10;3.40;;;;;;;3.11;48.04;95679.00;5038881;28;22485;-73
2023/03/29 00:09:54;;;;;;;6.07;4.07;;;;;;;2.99;49.15;95680.84;5038299;28;20082;-73
2023/03/29 00:12:20;;;;;;;8.88;4.90;;;;;;;2.87;48.96;95674.00;5017952;28;20041;-74
2023/03/29 00:14:45;;;;;;;6.50;3.13;;;;;;;3.13;49.08;95682.31;5019234;28;20028;-73
2023/03/29 00:17:11;;;;;;;3.97;3.03;;;;;;;2.17;50.54;95674.41;5020051;28;20091;-74
2023/03/29 00:19:36;;;;;;;8.50;5.30;;;;;;;2.66;50.53;95669.56;5017435;28;20048;-73
2023/03/29 00:22:04;;;;;;;7.95;3.75;;;;;;;2.97;49.28;95658.28;5038328;28;20024;-73
2023/03/29 00:24:30;;;;;;;10.60;6.70;;;;;;;3.21;49.60;95651.91;5034855;28;20371;-73
2023/03/29 00:26:55;;;;;;;6.32;4.28;;;;;;;3.35;48.21;95656.81;5037552;28;20340;-74
2023/03/29 00:29:20;;;;;;;8.45;5.65;;;;;;;3.45;49.37;95642.88;5036195;28;20706;-74
2023/03/29 00:31:52;;;;;;;7.88;3.80;;;;;;;3.43;47.21;95646.47;5035405;28;20029;-73
2023/03/29 00:34:21;;;;;;;9.93;6.22;;;;;;;3.53;48.58;95643.06;5036561;28;20241;-73
2023/03/29 00:36:49;;;;;;;12.18;6.15;;;;;;;3.40;48.99;95627.44;5038029;28;20150;-74
2023/03/29 00:39:16;;;;;;;8.30;6.22;;;;;;;3.53;48.78;95630.75;5034969;28;20046;-74
2023/03/29 00:41:46;;;;;;;9.55;5.90;;;;;;;3.63;48.35;95622.88;5033833;28;20584;-73
2023/03/29 00:44:49;;;;;;;9.55;6.47;;;;;;;3.65;48.14;95628.00;5037843;28;20501;-73
2023/03/29 00:47:15;;;;;;;10.95;7.03;;;;;;;3.73;48.54;95624.69;5037235;28;20037;-74
2023/03/29 00:49:40;;;;;;;9.60;6.57;;;;;;;3.73;48.41;95625.53;5035129;28;20738;-73
2023/03/29 00:52:06;;;;;;;11.40;6.47;;;;;;;3.83;48.27;95620.28;5036113;28;20067;-73
2023/03/29 00:54:31;;;;;;;9.27;6.25;;;;;;;3.86;47.99;95611.28;5019372;28;20047;-73
2023/03/29 00:57:01;;;;;;;9.77;5.75;;;;;;;3.84;47.19;95616.69;5036263;28;20119;-74
2023/03/29 00:59:27;;;;;;;8.70;5.80;;;;;;;3.81;47.46;95614.31;5020007;28;20059;-73
2023/03/29 01:02:01;;;;;;;8.70;5.18;;;;;;;3.90;47.80;95610.88;5036536;28;20115;-72
2023/03/29 01:04:41;;;;;;;10.55;6.50;;;;;;;3.73;48.50;95603.63;5032629;28;20041;-73
2023/03/29 01:07:20;;;;;;;10.60;6.20;;;;;;;3.67;48.97;95602.34;5035460;28;20489;-72
2023/03/29 01:10:10;;;;;;;7.80;4.55;;;;;;;3.51;49.49;95600.25;5033996;28;20245;-72
2023/03/29 01:12:45;;;;;;;7.20;4.60;;;;;;;3.46;47.83;95597.16;5019466;28;20402;-72
2023/03/29 01:15:12;;;;;;;8.90;5.60;;;;;;;3.54;48.27;95600.81;5019737;28;20064;-72
2023/03/29 01:17:39;;;;;;;9.63;4.55;;;;;;;3.38;47.97;95595.19;5035476;28;20044;-72
2023/03/29 01:20:18;;;;;;;9.27;5.65;;;;;;;3.34;48.65;95597.25;5035205;28;20140;-72
2023/03/29 01:23:02;;;;;;;10.07;5.47;;;;;;;3.26;47.76;95583.91;5035625;28;20043;-72
2023/03/29 01:25:52;;;;;;;6.57;4.15;;;;;;;3.29;47.27;95591.53;5034521;28;20107;-72
2023/03/29 01:28:23;;;;;;;7.13;4.75;;;;;;;3.37;46.75;95583.81;5019143;28;20459;-72
2023/03/29 01:31:35;;;;;;;8.43;5.22;;;;;;;3.10;48.77;95584.41;5019406;28;20542;-72
2023/03/29 01:34:06;;;;;;;8.15;3.53;;;;;;;3.12;47.07;95593.84;5034725;28;20440;-72
2023/03/29 01:36:45;;;;;;;8.05;5.63;;;;;;;2.99;48.60;95577.47;5018102;28;20107;-72
2023/03/29 01:39:10;;;;;;;;;;;;;;;3.17;49.52;95573.22;5020152;28;20750;-72
2023/03/29 01:42:17;;;;;;;8.87;5.40;;;;;;;3.23;50.37;95569.22;5034814;28;20034;-72
2023/03/29 01:44:55;;;;;;;10.07;6.15;;;;;;;3.27;49.84;95561.91;5023318;28;20081;-72
2023/03/29 01:47:29;;;;;;;7.60;4.68;;;;;;;3.28;48.78;95569.69;5032834;28;20037;-72
2023/03/29 01:50:04;;;;;;;9.10;5.57;;;;;;;3.28;49.24;95563.56;5034756;28;20077;-72
2023/03/29 01:52:35;;;;;;;8.77;5.30;;;;;;;3.38;49.31;95564.44;5034205;28;20195;-72
2023/03/29 01:55:10;;;;;;;7.13;4.07;;;;;;;3.41;47.91;95556.25;5018486;28;20035;-72
2023/03/29 01:57:35;;;;;;;8.07;5.40;;;;;;;3.54;49.44;95549.97;5018956;28;20181;-72
2023/03/29 02:00:06;;;;;;;9.52;6.03;;;;;;;3.63;49.28;95554.41;5018114;28;20087;-73
2023/03/29 02:02:31;;;;;;;9.05;5.95;;;;;;;3.57;49.73;95557.56;5018918;28;20094;-72
2023/03/29 02:04:58;;;;;;;8.23;4.88;;;;;;;3.64;48.93;95550.00;5001254;28;20114;-72
2023/03/29 02:07:25;;;;;;;8.02;4.82;;;;;;;3.72;49.01;95547.50;5018033;28;20033;-72
2023/03/29 02:09:51;;;;;;;7.05;4.82;;;;;;;3.76;48.46;95553.31;5018623;28;20033;-72
2023/03/29 02:12:18;;;;;;;9.27;5.75;;;;;;;3.75;48.85;95549.88;5034171;28;20141;-72
2023/03/29 02:14:43;;;;;;;8.68;5.95;;;;;;;3.73;49.36;95550.94;5018269;28;20021;-72
2023/03/29 02:17:17;;;;;;;7.38;5.05;;;;;;;3.80;48.62;95545.03;5034259;28;20514;-72
2023/03/29 02:19:44;;;;;;;9.05;5.40;;;;;;;3.83;48.75;95541.28;5036307;28;20031;-72
2023/03/29 02:22:10;;;;;;;8.82;5.68;;;;;;;3.85;48.80;95539.34;5022941;28;20461;-72
2023/03/29 02:24:36;;;;;;;7.00;4.85;;;;;;;3.91;48.88;95544.03;5021945;28;20102;-72
2023/03/29 02:27:01;;;;;;;8.68;5.22;;;;;;;3.92;48.55;95544.88;5040730;28;20032;-72
2023/03/29 02:29:26;;;;;;;8.32;5.70;;;;;;;3.87;49.26;95537.38;5022256;28;20051;-72
2023/03/29 02:32:03;;;;;;;7.65;5.53;;;;;;;3.89;48.79;95535.47;5038728;28;20041;-72
2023/03/29 02:34:36;;;;;;;7.47;5.22;;;;;;;3.97;48.94;95537.41;5024071;28;20611;-72
2023/03/29 02:37:10;;;;;;;7.47;4.38;;;;;;;3.92;48.03;95544.88;5021615;28;20131;-72
2023/03/29 02:39:36;;;;;;;5.90;3.92;;;;;;;3.99;47.22;95545.16;5021034;28;20372;-72
2023/03/29 02:42:01;;;;;;;7.00;5.05;;;;;;;3.74;48.67;95521.03;5021718;28;20279;-72
2023/03/29 02:44:28;;;;;;;6.00;4.43;;;;;;;3.77;49.19;95521.59;5021540;28;20426;-72
2023/03/29 02:46:59;;;;;;;5.95;4.43;;;;;;;3.88;48.48;95525.88;5022261;28;20025;-72
2023/03/29 02:49:25;;;;;;;6.07;4.13;;;;;;;3.97;47.82;95520.75;5022059;28;20037;-72
2023/03/29 02:51:52;;;;;;;7.85;4.65;;;;;;;4.00;47.76;95517.84;5021333;28;20555;-72
2023/03/29 02:54:18;;;;;;;6.25;3.80;;;;;;;3.79;48.08;95521.44;5005549;28;20029;-72
2023/03/29 02:56:48;;;;;;;6.47;3.75;;;;;;;3.39;48.46;95518.72;5021117;28;20032;-72
2023/03/29 02:59:18;;;;;;;7.38;4.43;;;;;;;3.37;49.75;95517.22;5038615;28;20056;-72
2023/03/29 03:01:43;;;;;;;4.38;3.42;;;;;;;3.58;49.38;95517.13;5036510;28;20538;-72
2023/03/29 03:04:09;;;;;;;7.43;4.65;;;;;;;3.72;49.45;95518.53;5036545;28;20459;-72
2023/03/29 03:06:36;;;;;;;6.57;4.47;;;;;;;3.84;49.27;95516.59;5020401;28;20066;-72
2023/03/29 03:09:03;;;;;;;8.40;4.65;;;;;;;3.91;48.37;95511.63;5018710;28;20141;-72
2023/03/29 03:11:29;;;;;;;8.68;4.70;;;;;;;3.90;48.92;95494.97;5039229;28;20473;-72
2023/03/29 03:13:55;;;;;;;5.13;4.05;;;;;;;4.03;48.40;95496.50;5039461;28;20029;-72
2023/03/29 03:16:20;;;;;;;6.88;3.63;;;;;;;3.57;47.95;95488.31;5004712;28;20049;-72
2023/03/29 03:18:47;;;;;;;6.70;3.70;;;;;;;3.54;47.82;95505.22;5021317;28;20043;-72
2023/03/29 03:21:12;;;;;;;6.55;3.58;;;;;;;3.75;47.29;95499.00;5037295;28;20041;-72
2023/03/29 03:23:38;;;;;;;6.78;4.47;;;;;;;3.80;47.75;95504.66;5037268;28;20052;-72
2023/03/29 03:26:03;;;;;;;7.15;4.30;;;;;;;3.29;49.68;95502.06;5036526;28;20044;-73
2023/03/29 03:28:31;;;;;;;5.60;3.63;;;;;;;3.34;48.93;95499.06;5051267;28;20037;-72
2023/03/29 03:30:56;;;;;;;6.55;4.05;;;;;;;3.52;47.81;95499.25;5039081;28;20391;-73
2023/03/29 03:33:22;;;;;;;8.48;4.20;;;;;;;3.60;49.63;95498.56;5038029;28;20071;-72
2023/03/29 03:35:47;;;;;;;5.95;4.30;;;;;;;3.75;48.94;95494.56;5038869;28;20033;-72
2023/03/29 03:38:13;;;;;;;5.93;4.15;;;;;;;3.81;48.48;95490.53;5020809;28;20497;-72
2023/03/29 03:40:38;;;;;;;6.78;4.20;;;;;;;3.92;48.06;95493.03;5036835;28;20045;-72
2023/03/29 03:43:03;;;;;;;6.03;4.13;;;;;;;3.94;48.90;95491.09;5020231;28;20375;-72
2023/03/29 03:45:30;;;;;;;6.13;3.72;;;;;;;3.88;48.53;95489.00;5035935;28;20493;-72
2023/03/29 03:47:55;;;;;;;5.45;3.10;;;;;;;3.89;47.25;95493.31;5036227;28;20089;-73
2023/03/29 03:50:21;;;;;;;4.47;3.17;;;;;;;3.87;47.48;95487.34;5037653;28;20845;-72
2023/03/29 03:52:46;;;;;;;5.20;3.90;;;;;;;3.92;48.71;95490.38;5036707;28;20048;-72
2023/03/29 03:55:11;;;;;;;6.88;3.80;;;;;;;3.84;45.96;95478.91;5035451;28;20041;-72
2023/03/29 03:57:37;;;;;;;5.18;4.00;;;;;;;3.83;48.54;95482.50;5036910;28;20111;-72
2023/03/29 04:00:18;;;;;;;7.55;4.15;;;;;;;4.06;48.49;95485.69;5019527;28;20098;-72
2023/03/29 04:02:44;;;;;;;5.45;3.90;;;;;;;3.82;48.23;95486.94;5006280;28;20072;-72
2023/03/29 04:05:10;;;;;;;7.25;3.95;;;;;;;3.87;49.55;95482.06;5036936;28;20049;-72
2023/03/29 04:07:35;;;;;;;6.00;3.95;;;;;;;3.92;47.51;95479.03;5036207;28;20037;-72
2023/03/29 04:10:00;;;;;;;4.38;3.10;;;;;;;4.04;48.06;95482.34;5038830;28;20040;-72
2023/03/29 04:12:26;;;;;;;5.30;3.50;;;;;;;3.96;47.73;95477.78;5038323;28;20047;-72
2023/03/29 04:14:51;;;;;;;4.88;3.53;;;;;;;2.98;50.67;95479.28;5036673;28;20060;-72
2023/03/29 04:17:17;;;;;;;7.45;3.65;;;;;;;3.50;49.38;95483.59;5038192;28;20690;-72
2023/03/29 04:19:42;;;;;;;5.45;3.70;;;;;;;3.71;49.23;95482.63;5036476;28;20029;-72
2023/03/29 04:22:08;;;;;;;4.95;3.75;;;;;;;3.87;48.81;95470.69;5038841;28;20037;-72
2023/03/29 04:24:33;;;;;;;6.80;3.72;;;;;;;4.02;48.68;95473.75;5037052;28;20063;-72
2023/03/29 04:26:59;;;;;;;6.57;3.28;;;;;;;4.11;47.32;95475.53;5020120;28;20402;-72
2023/03/29 04:29:24;;;;;;;6.13;3.60;;;;;;;4.13;47.97;95467.50;5019585;28;20592;-72
2023/03/29 04:31:50;;;;;;;4.57;3.55;;;;;;;4.21;47.91;95469.44;5038121;28;20111;-72
2023/03/29 04:34:15;;;;;;;5.63;3.20;;;;;;;4.24;46.85;95472.63;5020176;28;20397;-72
2023/03/29 04:36:42;;;;;;;4.75;3.30;;;;;;;4.11;48.03;95465.00;5037893;28;20037;-72
2023/03/29 04:39:08;;;;;;;4.70;3.00;;;;;;;4.03;45.47;95463.09;5036473;28;20029;-72
2023/03/29 04:41:33;;;;;;;4.15;3.10;;;;;;;3.73;46.63;95461.41;5037383;28;20037;-72
2023/03/29 04:43:59;;;;;;;5.28;3.50;;;;;;;3.86;49.03;95455.88;5018619;28;20073;-72
2023/03/29 04:46:25;;;;;;;5.03;3.35;;;;;;;3.99;47.25;95455.59;5037118;28;20025;-72
2023/03/29 04:48:51;;;;;;;6.60;3.70;;;;;;;4.09;48.16;95455.56;5035981;28;20041;-72
2023/03/29 04:51:16;;;;;;;4.55;3.45;;;;;;;4.16;46.38;95454.88;5035914;28;20450;-72
2023/03/29 04:53:42;;;;;;;5.13;3.40;;;;;;;4.02;46.23;95460.59;5035633;28;20210;-72
2023/03/29 04:56:07;;;;;;;4.78;2.90;;;;;;;4.10;46.25;95458.06;5033748;28;20381;-72
2023/03/29 04:58:33;;;;;;;6.22;3.30;;;;;;;4.11;48.27;95459.72;5037905;28;20055;-72
2023/03/29 05:00:58;;;;;;;5.47;3.50;;;;;;;4.28;47.29;95462.59;5034992;28;20029;-72
2023/03/29 05:03:24;;;;;;;7.03;3.38;;;;;;;4.29;47.89;95457.19;5037143;28;20510;-72
2023/03/29 05:05:49;;;;;;;4.30;3.47;;;;;;;4.35;48.50;95455.78;5035576;28;20041;-72
2023/03/29 05:08:15;;;;;;;5.40;3.38;;;;;;;4.47;47.96;95460.91;5035471;28;20551;-72
2023/03/29 05:10:42;;;;;;;5.25;3.10;;;;;;;4.57;47.47;95465.19;5033284;28;20106;-72
2023/03/29 05:13:08;;;;;;;5.70;3.10;;;;;;;4.55;47.76;95456.56;5037163;28;20037;-72
2023/03/29 05:15:33;;;;;;;5.30;3.30;;;;;;;4.63;47.26;95463.75;5035934;28;20037;-72
2023/03/29 05:18:00;;;;;;;3.63;3.10;;;;;;;4.67;47.20;95465.16;5002950;28;20033;-72
2023/03/29 05:20:25;;;;;;;3.45;3.03;;;;;;;4.76;46.87;95462.63;5036248;28;20137;-72
2023/03/29 05:22:52;;;;;;;6.07;3.40;;;;;;;4.81;46.63;95463.00;5035545;28;20446;-72
2023/03/29 05:25:18;;;;;;;5.93;3.20;;;;;;;3.66;45.49;95464.63;5018435;28;20049;-73
2023/03/29 05:27:44;;;;;;;5.90;3.33;;;;;;;3.88;48.22;95461.84;5035028;28;20028;-72
2023/03/29 05:30:12;;;;;;;6.80;3.20;;;;;;;4.26;46.78;95470.69;5036511;28;20112;-72
2023/03/29 05:32:37;;;;;;;4.00;3.28;;;;;;;4.43;47.05;95457.72;5018477;28;20049;-72
2023/03/29 05:35:03;;;;;;;3.92;3.08;;;;;;;4.61;46.34;95457.81;5037067;28;20025;-72
2023/03/29 05:37:33;;;;;;;4.72;3.08;;;;;;;4.30;45.39;95463.31;5018443;28;20037;-72
2023/03/29 05:39:58;;;;;;;4.18;2.90;;;;;;;4.49;47.00;95449.22;5018443;28;20087;-73
2023/03/29 05:42:24;;;;;;;5.65;3.00;;;;;;;4.15;44.94;95452.38;5034585;28;20040;-72
2023/03/29 05:44:49;;;;;;;3.95;2.90;;;;;;;4.28;47.63;95455.53;5035991;28;20338;-72
2023/03/29 05:47:15;;;;;;;4.40;3.05;;;;;;;4.10;46.68;95455.44;5032918;28;20305;-73
2023/03/29 05:49:41;;;;;;;5.38;3.15;;;;;;;4.17;47.57;95458.34;5034866;28;20657;-72
2023/03/29 05:52:06;;;;;;;3.53;2.67;;;;;;;4.34;46.86;95459.41;5035933;28;20049;-72
2023/03/29 05:54:32;;;;;;;4.63;3.05;;;;;;;4.23;46.71;95462.22;5017901;28;20039;-72
2023/03/29 05:56:57;;;;;;;5.70;3.17;;;;;;;3.86;47.15;95461.16;5036133;28;20041;-72
2023/03/29 05:59:23;;;;;;;4.32;2.97;;;;;;;4.14;48.20;95462.09;5036766;28;20066;-72
2023/03/29 06:01:48;;;;;;;4.85;3.17;;;;;;;4.29;47.39;95462.47;5032453;28;20082;-72
2023/03/29 06:04:14;;;;;;;5.97;3.03;;;;;;;4.24;46.93;95466.50;5017875;28;20183;-72
2023/03/29 06:06:40;;;;;;;3.90;2.80;;;;;;;4.10;47.34;95465.13;5051232;28;20072;-72
2023/03/29 06:09:06;;;;;;;5.32;3.05;;;;;;;4.19;48.12;95467.75;5034046;28;20090;-72
2023/03/29 06:11:31;;;;;;;4.85;3.00;;;;;;;4.48;47.11;95459.91;5036320;28;20029;-72
2023/03/29 06:13:57;;;;;;;4.00;2.90;;;;;;;4.55;46.32;95464.50;5035165;28;20033;-72
2023/03/29 06:16:22;;;;;;;4.10;3.17;;;;;;;4.74;46.70;95467.19;5017594;28;20063;-72
2023/03/29 06:18:47;;;;;;;5.30;3.13;;;;;;;4.76;46.71;95463.44;5036004;28;20398;-72
2023/03/29 06:21:13;;;;;;;4.28;2.90;;;;;;;4.56;46.67;95467.97;5051530;28;20037;-72
2023/03/29 06:23:39;;;;;;;6.68;3.38;;;;;;;4.79;46.16;95472.84;5034182;28;20037;-72
2023/03/29 06:26:04;;;;;;;4.55;3.13;;;;;;;4.82;46.69;95472.56;5036512;28;20041;-72
2023/03/29 06:28:30;;;;;;;4.35;3.15;;;;;;;4.50;46.16;95460.63;5035622;28;20043;-72
2023/03/29 06:31:00;;;;;;;5.50;3.03;;;;;;;4.87;46.04;95458.97;5036530;28;20481;-72
2023/03/29 06:33:29;;;;;;;3.92;2.97;;;;;;;4.90;46.17;95461.31;5034089;28;20081;-72
2023/03/29 06:35:55;;;;;;;4.10;2.88;;;;;;;4.95;46.46;95456.41;5018352;28;20162;-72
2023/03/29 06:38:20;;;;;;;4.68;2.67;;;;;;;4.99;46.07;95463.06;5016157;28;20480;-72
2023/03/29 06:40:47;;;;;;;3.13;2.70;;;;;;;5.03;45.69;95463.63;5033439;28;20029;-61
2023/03/29 06:43:12;;;;;;;4.28;2.80;;;;;;;5.10;46.05;95469.97;5034027;28;20083;-61
2023/03/29 06:45:38;;;;;;;4.07;2.90;;;;;;;5.28;45.56;95472.66;5033268;28;20041;-60
2023/03/29 06:48:04;;;;;;;7.70;5.03;;;;;;;5.35;45.56;95473.72;5032432;28;20436;-61
2023/03/29 06:50:30;;;;;;;10.18;6.97;;;;;;;5.42;45.53;95481.06;5032855;28;20054;-61
2023/03/29 06:52:56;;;;;;;7.38;4.85;;;;;;;5.52;44.89;95489.75;5031293;28;20084;-60
2023/03/29 06:55:22;;;;;;;10.20;7.07;;;;;;;5.47;45.38;95492.00;5032390;28;20511;-61
2023/03/29 06:57:47;;;;;;;9.10;6.40;;;;;;;5.51;45.15;95487.25;5033575;28;20029;-60
2023/03/29 07:00:16;;;;;;;10.98;6.68;;;;;;;5.60;45.21;95486.34;5030589;28;20409;-60
2023/03/29 07:02:42;;;;;;;8.82;5.75;;;;;;;5.67;44.83;95487.41;5035428;28;20432;-60
2023/03/29 07:05:12;;;;;;;9.75;6.43;;;;;;;5.72;44.91;95484.34;5047887;28;20045;-60
2023/03/29 07:07:58;;;;;;;5.18;3.65;;;;;;;5.65;43.84;95491.19;5037550;28;20061;-60
2023/03/29 07:10:27;;;;;;;5.63;3.90;;;;;;;5.17;45.54;95497.44;5035215;28;20028;-60
2023/03/29 07:12:53;;;;;;;11.45;8.70;;;;;;;5.38;45.53;95491.09;5035449;28;20136;-59
2023/03/29 07:15:20;;;;;;;11.50;7.47;;;;;;;4.91;46.59;95506.00;5036707;28;20307;-60
2023/03/29 07:17:48;;;;;;;13.80;9.48;;;;;;;5.29;46.21;95494.59;5038436;28;20083;-59
2023/03/29 07:20:14;;;;;;;13.93;8.35;;;;;;;5.35;45.79;95491.38;5035313;28;20036;-59
2023/03/29 07:22:43;;;;;;;9.45;6.10;;;;;;;5.33;44.96;95490.69;5037006;28;20094;-60
2023/03/29 07:25:09;;;;;;;5.30;2.80;;;;;;;5.16;44.83;95489.66;5036391;28;20041;-60
2023/03/29 07:27:38;;;;;;;10.02;4.90;;;;;;;5.22;45.08;95500.50;5031958;28;20496;-60
2023/03/29 07:30:05;;;;;;;13.43;9.38;;;;;;;5.32;44.94;95496.94;5037517;28;20036;-60
2023/03/29 07:32:31;;;;;;;19.92;14.48;;;;;;;5.66;44.55;95495.47;5036474;28;20033;-59
2023/03/29 07:34:57;;;;;;;16.67;11.30;;;;;;;5.70;43.98;95502.97;5038730;28;20043;-60
2023/03/29 07:37:23;;;;;;;21.63;16.45;;;;;;;5.70;45.13;95495.03;5038257;28;20287;-59
2023/03/29 07:39:49;;;;;;;22.60;17.20;;;;;;;5.98;44.50;95497.59;5034945;28;20047;-60
2023/03/29 07:42:15;;;;;;;24.95;19.20;;;;;;;6.12;44.28;95493.59;5033131;28;20040;-60
2023/03/29 07:44:40;;;;;;;13.55;8.93;;;;;;;6.45;42.96;95489.53;5031997;28;20037;-59
2023/03/29 07:47:05;;;;;;;22.30;17.17;;;;;;;6.61;42.86;95483.53;5033225;28;20040;-60
2023/03/29 07:49:31;;;;;;;22.67;16.88;;;;;;;6.53;42.97;95486.16;5037059;28;20897;-60
2023/03/29 07:51:56;;;;;;;9.77;6.13;;;;;;;5.93;42.90;95494.59;5036730;28;20281;-60
2023/03/29 07:54:22;;;;;;;24.33;15.18;;;;;;;5.98;44.29;95489.69;5033644;28;20028;-60
2023/03/29 07:56:48;;;;;;;26.42;19.48;;;;;;;6.52;43.44;95487.94;5036984;28;20032;-60
2023/03/29 07:59:13;;;;;;;10.75;6.75;;;;;;;6.67;42.32;95485.59;5038240;28;20041;-60
2023/03/29 08:01:39;;;;;;;14.55;9.27;;;;;;;6.81;42.14;95491.25;5037699;28;20591;-59
2023/03/29 08:04:05;;;;;;;21.80;14.98;;;;;;;7.06;42.54;95496.66;5036019;28;20280;-60
2023/03/29 08:06:31;;;;;;;21.60;14.73;;;;;;;7.05;42.01;95495.84;5035942;28;20021;-60
2023/03/29 08:08:57;;;;;;;25.20;17.13;;;;;;;7.26;41.65;95502.53;5037954;28;20371;-59
2023/03/29 08:11:23;;;;;;;7.00;4.50;;;;;;;6.39;41.81;95509.47;5037842;28;20183;-59
2023/03/29 08:13:51;;;;;;;5.57;4.22;;;;;;;5.37;43.30;95515.00;5038184;28;20504;-60
2023/03/29 08:16:17;;;;;;;26.20;18.55;;;;;;;5.91;44.28;95514.22;5036322;28;20516;-60
2023/03/29 08:18:42;;;;;;;4.93;3.42;;;;;;;6.01;43.08;95511.50;5037602;28;20047;-59
2023/03/29 08:21:08;;;;;;;25.73;18.67;;;;;;;6.61;43.25;95502.06;5033488;28;20040;-60
2023/03/29 08:23:33;;;;;;;24.02;17.77;;;;;;;6.98;42.50;95503.59;5036271;28;20520;-60
2023/03/29 08:25:59;;;;;;;13.07;8.20;;;;;;;6.95;41.52;95506.56;5034029;28;20032;-60
2023/03/29 08:28:24;;;;;;;14.05;9.82;;;;;;;6.95;42.20;95501.28;5035999;28;20391;-60
2023/03/29 08:30:50;;;;;;;19.25;13.43;;;;;;;6.43;43.17;95502.91;5036510;28;20044;-59
2023/03/29 08:33:15;;;;;;;21.58;14.52;;;;;;;6.65;42.39;95495.47;5033166;28;20524;-60
2023/03/29 08:35:41;;;;;;;19.25;13.70;;;;;;;7.02;41.03;95502.31;5034425;28;20048;-60
2023/03/29 08:38:07;;;;;;;7.47;4.63;;;;;;;7.02;40.80;95494.34;5038276;28;20032;-60
2023/03/29 08:40:32;;;;;;;26.23;20.13;;;;;;;7.28;41.14;95496.09;5026046;28;20056;-59
2023/03/29 08:43:40;;;;;;;31.00;21.42;;;;;;;7.50;40.81;95507.09;5018278;28;20040;-60
2023/03/29 08:46:32;;;;;;;27.83;21.25;;;;;;;7.61;40.42;95497.19;5017721;28;20057;-60
2023/03/29 08:49:02;;;;;;;10.98;7.35;;;;;;;7.84;40.36;95497.44;5036322;28;20029;-60
2023/03/29 08:51:41;;;;;;;15.88;11.43;;;;;;;6.75;41.64;95496.22;5017142;28;20567;-61
2023/03/29 08:54:11;;;;;;;9.23;4.10;;;;;;;7.07;40.80;95503.63;5015468;28;20035;-60
2023/03/29 08:56:37;;;;;;;10.65;6.72;;;;;;;7.13;41.23;95501.19;5035113;28;20580;-60
2023/03/29 08:59:02;;;;;;;13.18;7.90;;;;;;;7.45;39.94;95490.84;5031371;28;20039;-60
2023/03/29 09:01:31;;;;;;;14.00;9.23;;;;;;;7.54;41.21;95492.53;5033286;28;20044;-60
2023/03/29 09:04:02;;;;;;;;;;;;;;;8.03;40.13;95503.41;5036271;28;20084;-60
2023/03/29 09:06:27;;;;;;;3.63;2.50;;;;;;;7.39;38.93;95507.41;5034753;28;19916;-60
2023/03/29 09:08:53;;;;;;;6.25;2.90;;;;;;;7.45;40.48;95511.22;5034711;28;20043;-59
2023/03/29 09:11:46;;;;;;;6.28;2.85;;;;;;;5.35;43.52;95510.69;5037096;28;20405;-60
2023/03/29 09:14:30;;;;;;;12.57;5.95;;;;;;;6.86;42.17;95510.13;5036714;28;20021;-60
2023/03/29 09:17:02;;;;;;;11.25;5.93;;;;;;;6.31;42.51;95504.13;5031515;28;20037;-60
2023/03/29 09:19:36;;;;;;;18.10;12.63;;;;;;;6.54;42.11;95512.44;5034083;28;20033;-60
2023/03/29 09:22:18;;;;;;;9.73;6.65;;;;;;;7.01;41.24;95505.91;5033629;28;20482;-60
2023/03/29 09:24:55;;;;;;;10.63;6.40;;;;;;;7.53;40.33;95498.00;5035691;28;20438;-60
2023/03/29 09:27:25;;;;;;;7.60;4.40;;;;;;;6.75;40.41;95496.22;5017487;28;20032;-60
2023/03/29 09:30:15;;;;;;;19.65;13.18;;;;;;;6.74;42.09;95499.81;5029681;28;20564;-61
2023/03/29 09:32:56;;;;;;;5.50;3.65;;;;;;;6.54;41.99;95509.81;5033915;28;20041;-60
2023/03/29 09:35:39;;;;;;;5.65;2.95;;;;;;;5.75;43.79;95515.75;5032125;28;20693;-60
2023/03/29 09:38:08;;;;;;;6.22;3.33;;;;;;;4.76;46.17;95510.91;5033946;28;20033;-60
2023/03/29 09:40:40;;;;;;;13.10;7.75;;;;;;;5.44;45.16;95508.97;5033689;28;20559;-60
2023/03/29 09:43:08;;;;;;;7.85;4.25;;;;;;;7.21;41.37;95512.81;5026798;28;20025;-59
2023/03/29 09:45:35;;;;;;;4.22;2.83;;;;;;;6.02;42.18;95510.53;5046266;28;20040;-60
2023/03/29 09:48:12;;;;;;;8.30;5.53;;;;;;;7.59;40.25;95502.66;5034572;28;20570;-60
2023/03/29 09:50:42;;;;;;;15.63;10.15;;;;;;;7.86;39.80;95502.56;5029480;28;20029;-59
2023/03/29 09:53:07;;;;;;;7.90;4.35;;;;;;;7.81;39.69;95507.50;5028984;28;20393;-60
2023/03/29 09:55:35;;;;;;;5.10;2.72;;;;;;;6.45;43.48;95515.97;5029744;28;20029;-60
2023/03/29 09:58:01;;;;;;;6.22;3.67;;;;;;;6.85;41.59;95511.13;5031758;28;20285;-59
2023/03/29 10:00:26;;;;;;;6.03;3.38;;;;;;;6.40;42.66;95507.69;5032644;28;20143;-60
2023/03/29 10:02:53;;;;;;;4.15;2.72;;;;;;;7.49;41.83;95494.84;5032342;28;20095;-60
2023/03/29 10:05:18;;;;;;;8.30;5.22;;;;;;;7.50;41.26;95500.97;5034114;28;20254;-60
2023/03/29 10:07:46;;;;;;;37.67;28.92;;;;;;;8.22;40.27;95489.00;5031633;28;20158;-60
2023/03/29 10:10:32;;;;;;;5.88;2.88;;;;;;;6.12;44.36;95490.09;5032031;28;20097;-60
2023/03/29 10:13:05;;;;;;;18.40;11.20;;;;;;;7.17;43.05;95487.63;5032273;28;20677;-60
2023/03/29 10:15:30;;;;;;;6.38;3.90;;;;;;;7.91;40.42;95484.34;5031646;28;21007;-61
2023/03/29 10:18:00;;;;;;;14.73;8.55;;;;;;;7.32;42.16;95486.03;5032910;28;20037;-60
2023/03/29 10:20:25;;;;;;;6.18;3.15;;;;;;;6.95;43.43;95497.78;5032348;28;20037;-60
2023/03/29 10:22:55;;;;;;;12.73;8.68;;;;;;;8.23;41.15;95493.28;5015587;28;20025;-60
2023/03/29 10:25:24;;;;;;;10.27;7.00;;;;;;;7.60;43.15;95492.88;5030587;28;20177;-60
2023/03/29 10:27:50;;;;;;;18.63;13.20;;;;;;;8.63;41.01;95495.25;5034615;28;20043;-60
2023/03/29 10:30:22;;;;;;;47.05;35.17;;;;;;;8.89;40.02;95483.59;5034911;28;20029;-60
2023/03/29 10:32:58;;;;;;;5.63;3.03;;;;;;;9.42;39.42;95483.91;5034442;28;20033;-61
2023/03/29 10:35:37;;;;;;;16.65;10.55;;;;;;;9.04;39.63;95479.25;5033940;28;20418;-61
2023/03/29 10:38:02;;;;;;;;;;;;;;;7.85;42.40;95475.22;5032920;28;20061;-60
2023/03/29 10:40:31;;;;;;;4.07;2.80;;;;;;;8.76;39.84;95474.34;5032089;28;20036;-60
2023/03/29 10:43:00;;;;;;;5.63;2.80;;;;;;;8.36;40.87;95482.19;5037625;28;20067;-61
2023/03/29 10:45:30;;;;;;;14.35;9.75;;;;;;;8.95;40.04;95477.63;5033408;28;20068;-61
2023/03/29 10:47:56;;;;;;;5.07;3.28;;;;;;;8.17;41.23;95478.06;5038397;28;20067;-61
2023/03/29 10:50:22;;;;;;;7.10;3.67;;;;;;;8.62;40.23;95483.81;5038847;28;20067;-60
2023/03/29 10:52:49;;;;;;;23.45;16.20;;;;;;;8.86;40.37;95479.44;5038214;28;20039;-61
2023/03/29 10:55:14;;;;;;;27.90;19.08;;;;;;;9.41;38.92;95484.91;5036835;28;20434;-61
2023/03/29 10:57:55;;;;;;;7.75;3.58;;;;;;;8.36;40.66;95484.03;5019177;28;20512;-60
2023/03/29 11:00:31;;;;;;;16.92;12.15;;;;;;;9.01;39.48;95474.28;5034304;28;20129;-61
2023/03/29 11:02:59;;;;;;;6.13;2.90;;;;;;;8.07;41.68;95478.22;5037215;28;20058;-62
2023/03/29 11:05:36;;;;;;;7.70;3.00;;;;;;;8.25;40.91;95483.38;5037677;28;20072;-61
2023/03/29 11:08:10;;;;;;;21.10;13.95;;;;;;;7.10;43.83;95485.59;5038782;28;20100;-60
2023/03/29 11:10:56;;;;;;;7.22;2.97;;;;;;;7.87;42.67;95485.66;5038169;28;20035;-60
2023/03/29 11:13:25;;;;;;;15.75;9.20;;;;;;;8.51;41.24;95485.00;5036722;28;20369;-60
2023/03/29 11:16:21;;;;;;;13.52;8.43;;;;;;;8.07;42.32;95477.41;5039417;28;20529;-60
2023/03/29 11:19:15;;;;;;;40.90;32.30;;;;;;;8.84;41.21;95476.13;5034289;28;20036;-60
2023/03/29 11:21:58;;;;;;;19.08;14.13;;;;;;;9.67;39.12;95473.16;5038315;28;20079;-67
2023/03/29 11:24:33;;;;;;;5.43;2.90;;;;;;;9.58;38.51;95483.00;5037866;28;20094;-71
2023/03/29 11:27:04;;;;;;;16.55;11.27;;;;;;;10.12;38.04;95469.00;5038032;28;20137;-72
2023/03/29 11:29:33;;;;;;;6.68;4.10;;;;;;;10.40;37.27;95471.94;5038202;28;20106;-72
2023/03/29 11:32:16;;;;;;;5.75;2.90;;;;;;;9.54;39.69;95481.69;5020549;28;20592;-71
2023/03/29 11:35:06;;;;;;;6.47;3.20;;;;;;;7.99;42.72;95473.75;5036793;28;20496;-72
2023/03/29 11:37:35;;;;;;;8.48;5.00;;;;;;;9.25;39.98;95469.84;5037801;28;20048;-71
2023/03/29 11:40:06;;;;;;;5.15;3.40;;;;;;;10.05;38.45;95459.09;5020773;28;20083;-72
2023/03/29 11:42:33;;;;;;;20.70;15.68;;;;;;;9.98;38.28;95468.78;5039462;28;20074;-72
2023/03/29 11:44:59;;;;;;;26.30;19.85;;;;;;;10.62;37.06;95456.91;5003989;28;20033;-71
2023/03/29 11:47:32;;;;;;;7.50;2.95;;;;;;;9.25;40.50;95469.84;5036374;28;20029;-72